Time;durP1;ratioP1;P1;durP2;ratioP2;P2;SDS_P1;SDS_P2;PMS_P1;PMS_P2;Temp;Humidity;BMP_temperature;BMP_pressure;BME280_temperature;BME280_humidity;BME280_pressure;Samples;Min_cycle;Max_cycle;Signal;HPM_P1;HPM_P2
2024/01/17 00:03:06;;;;;;;11.93;2.50;;;;;;;-1.96;93.66;98579.66;12202278;19;19998;-83
2024/01/17 00:07:08;;;;;;;6.72;2.60;;;;;;;-1.98;93.94;98556.59;12215624;19;20103;-82
2024/01/17 00:11:11;;;;;;;5.67;2.37;;;;;;;-1.99;93.46;98544.97;12220268;19;20007;-79
2024/01/17 00:15:14;;;;;;;5.72;2.50;;;;;;;-2.02;93.61;98531.84;12198037;19;20298;-82
2024/01/17 00:19:16;;;;;;;5.95;2.40;;;;;;;-2.06;93.95;98527.88;12217858;19;20017;-82
2024/01/17 00:23:18;;;;;;;6.63;2.70;;;;;;;-2.04;93.64;98523.13;12217491;19;20003;-82
2024/01/17 00:27:26;;;;;;;8.77;3.70;;;;;;;-2.04;94.15;98512.31;12191030;19;20011;-83
2024/01/17 00:31:28;;;;;;;;;;;;;;;-2.03;94.10;98505.88;12215519;19;20805;-81
2024/01/17 00:35:30;;;;;;;6.05;2.40;;;;;;;-2.02;94.23;98504.88;12192393;19;19926;-82
2024/01/17 00:39:31;;;;;;;12.67;3.10;;;;;;;-1.99;94.12;98487.41;12214987;19;20030;-80
2024/01/17 00:43:34;;;;;;;4.00;2.00;;;;;;;-2.01;93.96;98466.03;12210607;19;20003;-80
2024/01/17 00:47:36;;;;;;;6.00;2.92;;;;;;;-1.99;94.07;98463.97;12203993;19;20033;-79
2024/01/17 00:51:38;;;;;;;6.45;2.60;;;;;;;-1.97;94.33;98469.97;12255037;19;20010;-82
2024/01/17 00:55:40;;;;;;;7.67;3.13;;;;;;;-1.95;94.24;98486.81;12247151;19;20007;-81
2024/01/17 00:59:42;;;;;;;9.65;2.97;;;;;;;-1.93;94.05;98473.13;12198446;19;20027;-82
2024/01/17 01:03:45;;;;;;;5.80;1.97;;;;;;;-1.95;94.04;98465.22;12189570;19;20565;-81
2024/01/17 01:07:47;;;;;;;8.23;3.05;;;;;;;-1.96;93.96;98466.25;12199326;19;20560;-81
2024/01/17 01:11:49;;;;;;;5.32;2.53;;;;;;;-1.98;94.22;98460.22;12189841;19;20023;-83
2024/01/17 01:15:51;;;;;;;9.53;3.17;;;;;;;-2.01;94.07;98467.91;12238657;19;20010;-81
2024/01/17 01:19:55;;;;;;;7.38;2.78;;;;;;;-2.08;94.16;98451.69;12226343;19;20010;-83
2024/01/17 01:23:56;;;;;;;5.82;2.70;;;;;;;-2.13;94.25;98451.44;12197923;19;20026;-84
2024/01/17 01:27:58;;;;;;;5.03;2.20;;;;;;;-2.14;94.37;98452.47;12217195;19;20042;-83
2024/01/17 01:32:00;;;;;;;4.57;2.50;;;;;;;-2.14;94.57;98457.84;12215557;19;20657;-84
2024/01/17 01:36:02;;;;;;;7.63;2.72;;;;;;;-2.15;94.40;98448.94;12188508;19;20021;-82
2024/01/17 01:40:04;;;;;;;6.87;2.67;;;;;;;-2.14;94.43;98444.38;12221317;19;20035;-83
2024/01/17 01:44:06;;;;;;;3.70;1.70;;;;;;;-2.14;94.04;98447.94;12234422;19;20255;-84
2024/01/17 01:48:08;;;;;;;5.90;2.05;;;;;;;-2.14;94.11;98441.66;12190526;19;20611;-82
2024/01/17 01:52:10;;;;;;;7.40;2.03;;;;;;;-2.14;94.04;98428.19;12219100;19;20002;-83
2024/01/17 01:56:15;;;;;;;4.57;2.05;;;;;;;-2.15;94.37;98421.13;12213227;19;20041;-81
2024/01/17 02:00:17;;;;;;;9.95;3.25;;;;;;;-2.18;94.29;98410.72;12195975;19;20010;-82
2024/01/17 02:04:20;;;;;;;7.43;2.85;;;;;;;-2.25;94.38;98399.94;12216239;19;20014;-84
2024/01/17 02:08:22;;;;;;;;;;;;;;;-2.42;93.58;98391.34;12218701;19;20014;-82
2024/01/17 02:12:24;;;;;;;4.03;2.27;;;;;;;-2.52;94.24;98377.41;12186366;19;20809;-83
2024/01/17 02:16:27;;;;;;;4.95;2.08;;;;;;;-2.56;95.25;98384.22;12213833;19;20011;-83
2024/01/17 02:20:29;;;;;;;;;;;;;;;-2.61;95.28;98371.34;12197735;19;20010;-82
2024/01/17 02:24:31;;;;;;;9.02;2.28;;;;;;;-2.83;94.21;98356.31;12212068;19;19910;-81
2024/01/17 02:28:33;;;;;;;4.72;2.53;;;;;;;-3.01;95.75;98351.44;12217480;19;20010;-82
2024/01/17 02:32:35;;;;;;;6.70;2.45;;;;;;;-3.07;96.32;98349.53;12193641;19;20011;-82
2024/01/17 02:36:37;;;;;;;;;;;;;;;-3.08;97.02;98345.19;12212111;19;20023;-82
2024/01/17 02:40:39;;;;;;;6.32;2.00;;;;;;;-3.06;97.26;98335.06;12210729;19;20004;-81
2024/01/17 02:44:41;;;;;;;8.15;2.10;;;;;;;-3.05;97.12;98332.13;12193305;19;20010;-82
2024/01/17 02:48:43;;;;;;;6.57;2.60;;;;;;;-3.10;97.67;98320.28;12210528;19;20010;-82
2024/01/17 02:52:45;;;;;;;11.43;2.67;;;;;;;-3.11;98.11;98305.16;12209899;19;20010;-81
2024/01/17 02:56:47;;;;;;;9.00;2.55;;;;;;;-3.07;98.12;98304.56;12190728;19;20028;-81
2024/01/17 03:00:48;;;;;;;3.58;2.03;;;;;;;-3.05;98.56;98304.38;12215208;19;20023;-82
2024/01/17 03:04:50;;;;;;;9.02;2.50;;;;;;;-3.01;98.92;98295.66;12223843;19;20018;-81
2024/01/17 03:08:52;;;;;;;5.90;3.03;;;;;;;-2.97;98.68;98296.13;12209912;19;20002;-80
2024/01/17 03:12:54;;;;;;;6.30;2.80;;;;;;;-3.01;98.59;98278.66;12244514;19;20908;-81
2024/01/17 03:16:56;;;;;;;7.17;3.13;;;;;;;-3.04;98.93;98285.28;12188373;19;20328;-83
2024/01/17 03:20:58;;;;;;;8.18;4.10;;;;;;;-3.01;99.13;98268.72;12218155;19;20010;-82
2024/01/17 03:25:00;;;;;;;8.50;4.10;;;;;;;-3.00;99.51;98270.41;12192642;19;20091;-83
2024/01/17 03:29:02;;;;;;;10.00;5.03;;;;;;;-2.95;99.75;98258.19;12210124;19;20624;-83
2024/01/17 03:33:04;;;;;;;11.20;4.90;;;;;;;-2.96;99.81;98241.19;12188898;19;20018;-82
2024/01/17 03:37:06;;;;;;;13.48;5.35;;;;;;;-2.95;99.94;98234.75;12208507;19;19998;-83
2024/01/17 03:41:10;;;;;;;12.13;5.25;;;;;;;-2.94;99.97;98227.50;12207687;19;20013;-83
2024/01/17 03:45:12;;;;;;;;;;;;;;;-2.92;99.87;98222.72;12185055;19;20007;-84
2024/01/17 03:49:15;;;;;;;13.70;6.03;;;;;;;-2.93;99.86;98216.50;12208609;19;20382;-83
2024/01/17 03:53:17;;;;;;;12.57;5.22;;;;;;;-2.96;100.00;98206.13;12210075;19;20003;-82
2024/01/17 03:57:18;;;;;;;13.30;4.30;;;;;;;-2.93;100.00;98197.66;12230084;19;20415;-83
2024/01/17 04:01:20;;;;;;;15.70;6.57;;;;;;;-3.00;100.00;98192.25;12215629;19;20014;-81
2024/01/17 04:05:22;;;;;;;12.57;6.80;;;;;;;-3.02;100.00;98196.16;12211735;19;20006;-83
2024/01/17 04:09:24;;;;;;;13.45;4.68;;;;;;;-3.06;100.00;98186.84;12186682;19;20267;-82
2024/01/17 04:13:26;;;;;;;12.20;5.80;;;;;;;-3.02;100.00;98164.66;12206228;19;20017;-82
2024/01/17 04:17:28;;;;;;;11.40;6.30;;;;;;;-2.98;100.00;98162.38;12211503;19;20010;-82
2024/01/17 04:21:30;;;;;;;17.98;7.18;;;;;;;-2.94;100.00;98155.56;12187292;19;20013;-82
2024/01/17 04:25:32;;;;;;;16.00;7.73;;;;;;;-2.89;100.00;98150.38;12208498;19;20006;-83
2024/01/17 04:29:37;;;;;;;13.35;6.90;;;;;;;-2.86;100.00;98141.88;12208803;19;20019;-83
2024/01/17 04:33:38;;;;;;;16.23;6.55;;;;;;;-2.84;100.00;98112.88;12186824;19;20052;-81
2024/01/17 04:37:40;;;;;;;13.93;7.60;;;;;;;-2.78;100.00;98112.03;12205350;19;20011;-82
2024/01/17 04:41:42;;;;;;;17.83;7.17;;;;;;;-2.70;100.00;98102.09;12212151;19;20010;-82
2024/01/17 04:45:44;;;;;;;17.20;8.32;;;;;;;-2.68;100.00;98087.34;12187032;19;20908;-81
2024/01/17 04:49:46;;;;;;;15.47;7.60;;;;;;;-2.64;100.00;98079.72;12219477;19;20023;-82
2024/01/17 04:53:49;;;;;;;16.13;7.57;;;;;;;-2.62;100.00;98067.69;12220670;19;20047;-80
2024/01/17 04:57:51;;;;;;;19.53;8.70;;;;;;;-2.61;100.00;98058.53;12199237;19;20126;-82
2024/01/17 05:01:53;;;;;;;18.10;8.73;;;;;;;-2.56;100.00;98055.19;12226952;19;20069;-80
2024/01/17 05:05:55;;;;;;;19.63;8.73;;;;;;;-2.48;100.00;98046.91;12239095;19;20011;-84
2024/01/17 05:09:57;;;;;;;19.80;9.68;;;;;;;-2.40;100.00;98030.50;12206474;19;20014;-82
2024/01/17 05:13:58;;;;;;;15.77;8.57;;;;;;;-2.37;100.00;98031.97;12228877;19;20071;-82
2024/01/17 05:18:01;;;;;;;21.63;9.00;;;;;;;-2.36;100.00;98025.53;12226606;19;20027;-83
2024/01/17 05:22:03;;;;;;;24.60;10.82;;;;;;;-2.24;100.00;98018.44;12202084;19;20010;-84
2024/01/17 05:26:05;;;;;;;25.85;10.02;;;;;;;-2.15;100.00;98013.63;12219549;19;21627;-83
2024/01/17 05:30:09;;;;;;;18.00;9.30;;;;;;;-2.10;100.00;98005.72;12198858;19;20725;-83
2024/01/17 05:34:17;;;;;;;23.40;10.35;;;;;;;-2.04;100.00;97996.78;12218041;19;20454;-82
2024/01/17 05:38:19;;;;;;;18.23;9.87;;;;;;;-2.04;100.00;97980.59;12227073;19;20026;-83
2024/01/17 05:42:21;;;;;;;20.10;8.67;;;;;;;-2.03;100.00;97982.25;12197611;19;20865;-82
2024/01/17 05:46:22;;;;;;;19.50;8.57;;;;;;;-1.94;100.00;97966.63;12214017;19;20011;-81
2024/01/17 05:50:25;;;;;;;19.83;8.73;;;;;;;-1.88;100.00;97949.56;12221007;19;20102;-81
2024/01/17 05:54:27;;;;;;;24.58;10.27;;;;;;;-1.90;100.00;97941.72;12195991;19;20076;-82
2024/01/17 05:58:28;;;;;;;19.90;9.83;;;;;;;-1.86;99.96;97942.09;12219440;19;20018;-82
2024/01/17 06:02:30;;;;;;;15.87;8.17;;;;;;;-1.81;99.67;97930.63;12215653;19;20018;-81
2024/01/17 06:06:32;;;;;;;15.80;8.20;;;;;;;-1.76;99.17;97930.81;12189116;19;20114;-82
2024/01/17 06:10:37;;;;;;;23.43;9.67;;;;;;;-1.70;98.75;97921.84;12212508;19;20509;-81
2024/01/17 06:14:40;;;;;;;21.45;10.20;;;;;;;-1.66;99.08;97909.59;12215245;19;20742;-82
2024/01/17 06:18:42;;;;;;;22.45;10.65;;;;;;;-1.63;98.13;97909.16;12223102;19;20003;-80
2024/01/17 06:22:44;;;;;;;24.05;11.32;;;;;;;-1.62;97.85;97908.09;12242037;19;20007;-81
2024/01/17 06:26:49;;;;;;;20.45;10.00;;;;;;;-1.67;97.22;97900.63;12218171;19;20014;-80
2024/01/17 06:30:52;;;;;;;24.20;11.45;;;;;;;-1.77;97.44;97896.78;12172134;19;20010;-80
2024/01/17 06:34:53;;;;;;;19.50;10.73;;;;;;;-1.81;98.28;97900.94;12215003;19;20018;-78
2024/01/17 06:38:55;;;;;;;24.47;11.23;;;;;;;-1.85;98.28;97892.44;12246650;19;20007;-78
2024/01/17 06:42:57;;;;;;;26.42;11.18;;;;;;;-1.87;98.40;97875.66;12204023;19;20006;-80
2024/01/17 06:46:59;;;;;;;14.87;7.63;;;;;;;-1.82;98.43;97867.72;12212621;19;20058;-82
2024/01/17 06:51:01;;;;;;;24.60;10.97;;;;;;;-1.77;97.75;97862.50;12224780;19;20006;-81
2024/01/17 06:55:04;;;;;;;;;;;;;;;-1.72;97.78;97853.75;12196672;19;21315;-81
2024/01/17 06:59:05;;;;;;;26.88;9.95;;;;;;;-1.68;97.50;97852.25;12218843;19;19915;-81
2024/01/17 07:03:07;;;;;;;22.67;10.77;;;;;;;-1.65;97.23;97835.63;12192629;19;20465;-82
2024/01/17 07:07:09;;;;;;;23.30;11.18;;;;;;;-1.61;97.12;97837.66;12218524;19;20059;-81
2024/01/17 07:11:11;;;;;;;17.53;8.73;;;;;;;-1.59;96.57;97826.63;12216692;19;20021;-82
2024/01/17 07:15:13;;;;;;;28.52;12.15;;;;;;;-1.54;96.09;97818.69;12193456;19;20007;-83
2024/01/17 07:19:15;;;;;;;22.70;11.07;;;;;;;-1.50;96.14;97811.78;12210239;19;20014;-81
2024/01/17 07:23:17;;;;;;;27.67;12.02;;;;;;;-1.47;96.28;97814.06;12220875;19;20015;-82
2024/01/17 07:27:19;;;;;;;43.83;18.60;;;;;;;-1.41;96.17;97799.66;12244735;19;20011;-81
2024/01/17 07:31:21;;;;;;;28.70;13.98;;;;;;;-1.37;96.29;97786.53;12269336;19;20002;-81
2024/01/17 07:35:22;;;;;;;25.67;11.30;;;;;;;-1.40;96.10;97774.31;12236508;19;20458;-81
2024/01/17 07:39:24;;;;;;;31.65;10.57;;;;;;;-1.36;96.51;97768.47;12184719;19;20030;-80
2024/01/17 07:43:26;;;;;;;26.90;12.37;;;;;;;-1.26;96.98;97757.94;12208638;19;20002;-81
2024/01/17 07:47:29;;;;;;;;;;;;;;;-1.17;96.03;97751.19;12209150;19;20010;-80
2024/01/17 07:51:31;;;;;;;24.35;10.10;;;;;;;-1.15;95.64;97728.31;12190611;19;19934;-81
2024/01/17 07:55:33;;;;;;;34.00;10.93;;;;;;;-0.99;95.66;97726.84;12208279;19;20027;-82
2024/01/17 07:59:34;;;;;;;21.17;10.80;;;;;;;-0.98;95.35;97714.19;12210218;19;20003;-80
2024/01/17 08:03:37;;;;;;;17.38;7.97;;;;;;;-0.96;96.14;97710.19;12190445;19;20244;-81
2024/01/17 08:07:39;;;;;;;23.40;9.63;;;;;;;-0.90;96.41;97705.75;12204666;19;20086;-80
2024/01/17 08:11:49;;;;;;;27.75;15.82;;;;;;;-0.94;97.17;97685.63;12206884;19;20017;-81
2024/01/17 08:15:50;;;;;;;19.40;10.38;;;;;;;-0.89;98.86;97671.41;12183155;19;20461;-81
2024/01/17 08:19:52;;;;;;;24.27;10.03;;;;;;;-0.87;99.38;97662.03;12203978;19;20016;-80
2024/01/17 08:23:54;;;;;;;19.90;9.43;;;;;;;-0.79;99.31;97660.91;12229855;19;20014;-81
2024/01/17 08:27:58;;;;;;;20.87;10.47;;;;;;;-0.81;100.00;97649.47;12203248;19;20421;-80
2024/01/17 08:31:59;;;;;;;17.58;9.10;;;;;;;-0.70;100.00;97638.69;12225947;19;20051;-80
2024/01/17 08:36:01;;;;;;;23.73;10.40;;;;;;;-0.58;100.00;97638.72;12234268;19;20018;-79
2024/01/17 08:40:04;;;;;;;25.77;10.77;;;;;;;-0.50;100.00;97638.41;12202664;19;20023;-80
2024/01/17 08:44:06;;;;;;;;;;;;;;;-0.42;100.00;97625.59;12221966;19;20006;-79
2024/01/17 08:48:08;;;;;;;21.25;10.13;;;;;;;-0.32;100.00;97613.13;12200789;19;19907;-79
2024/01/17 08:52:10;;;;;;;19.70;9.90;;;;;;;-0.19;100.00;97612.06;12213761;19;20007;-79
2024/01/17 08:56:12;;;;;;;18.45;9.55;;;;;;;-0.07;100.00;97595.84;12215592;19;20018;-79
2024/01/17 09:00:15;;;;;;;22.63;11.15;;;;;;;-0.13;100.00;97589.47;12195826;19;20282;-80
2024/01/17 09:04:18;;;;;;;22.67;10.27;;;;;;;-0.09;100.00;97579.84;12215957;19;20006;-80
2024/01/17 09:08:21;;;;;;;22.60;10.23;;;;;;;-0.05;100.00;97563.94;12215321;19;20006;-81
2024/01/17 09:12:23;;;;;;;20.73;10.07;;;;;;;-0.09;100.00;97558.19;12189040;19;20020;-80
2024/01/17 09:16:25;;;;;;;23.80;11.20;;;;;;;-0.03;100.00;97543.72;12208059;19;20006;-80
2024/01/17 09:20:27;;;;;;;20.77;11.05;;;;;;;0.13;100.00;97527.78;12215820;19;20026;-80
2024/01/17 09:24:30;;;;;;;25.80;11.70;;;;;;;0.30;100.00;97523.28;12210861;19;20003;-80
2024/01/17 09:28:31;;;;;;;22.83;10.68;;;;;;;0.36;100.00;97516.91;12209471;19;20007;-80
2024/01/17 09:32:33;;;;;;;22.50;10.77;;;;;;;0.39;100.00;97521.81;12221554;19;20027;-81
2024/01/17 09:36:35;;;;;;;24.93;9.40;;;;;;;0.44;100.00;97515.66;12232642;19;20064;-81
2024/01/17 09:40:37;;;;;;;20.33;9.83;;;;;;;0.52;100.00;97514.47;12208366;19;20015;-80
2024/01/17 09:44:40;;;;;;;23.42;9.55;;;;;;;0.50;100.00;97500.34;12204718;19;20003;-80
2024/01/17 09:48:42;;;;;;;23.30;10.35;;;;;;;0.61;100.00;97489.44;12183620;19;20465;-80
2024/01/17 09:52:44;;;;;;;24.08;10.23;;;;;;;0.80;100.00;97487.34;12201821;19;20027;-80
2024/01/17 09:56:46;;;;;;;25.67;11.32;;;;;;;0.86;100.00;97478.25;12201332;19;20007;-79
2024/01/17 10:00:50;;;;;;;24.80;9.95;;;;;;;0.94;100.00;97473.50;12178591;19;20036;-80
2024/01/17 10:04:55;;;;;;;18.70;10.20;;;;;;;1.00;100.00;97465.19;12201020;19;20011;-80
2024/01/17 10:08:57;;;;;;;24.13;9.60;;;;;;;1.07;100.00;97454.16;12209459;19;20006;-79
2024/01/17 10:13:00;;;;;;;19.25;10.30;;;;;;;1.04;100.00;97439.25;12181820;19;20333;-80
2024/01/17 10:17:04;;;;;;;17.35;9.68;;;;;;;1.02;100.00;97430.53;12197912;19;20352;-80
2024/01/17 10:21:07;;;;;;;21.90;11.15;;;;;;;1.00;100.00;97423.69;12182068;19;20002;-81
2024/01/17 10:25:11;;;;;;;23.05;10.07;;;;;;;0.99;100.00;97405.78;12204377;19;21296;-81
2024/01/17 10:29:15;;;;;;;19.65;9.75;;;;;;;1.06;100.00;97393.69;12196539;19;20042;-79
2024/01/17 10:33:17;;;;;;;23.20;11.52;;;;;;;1.11;100.00;97373.97;12173001;19;20038;-79
2024/01/17 10:37:19;;;;;;;17.90;9.93;;;;;;;1.26;100.00;97366.06;12207804;19;20351;-80
2024/01/17 10:41:21;;;;;;;21.02;9.65;;;;;;;1.48;100.00;97357.13;12200699;19;20263;-80
2024/01/17 10:45:23;;;;;;;22.43;9.77;;;;;;;1.53;100.00;97352.56;12177498;19;20023;-81
2024/01/17 10:49:26;;;;;;;;;;;;;;;1.48;100.00;97333.50;12206574;19;20018;-79
2024/01/17 10:53:31;;;;;;;25.10;10.02;;;;;;;1.48;100.00;97333.50;12204926;19;19931;-81
2024/01/17 10:57:50;;;;;;;16.90;8.95;;;;;;;1.54;100.00;97323.53;12178583;19;20030;-81
2024/01/17 11:01:55;;;;;;;19.42;11.02;;;;;;;1.62;100.00;97323.09;12199840;19;20006;-80
2024/01/17 11:05:59;;;;;;;23.52;12.05;;;;;;;1.62;100.00;97312.25;12200262;19;20032;-81
2024/01/17 11:10:04;;;;;;;20.55;11.57;;;;;;;1.47;100.00;97303.91;12192276;19;20320;-81
2024/01/17 11:14:10;;;;;;;23.70;11.38;;;;;;;1.30;100.00;97291.22;12212571;19;20597;-83
2024/01/17 11:18:14;;;;;;;23.65;11.30;;;;;;;1.27;100.00;97299.03;12188768;19;20003;-81
2024/01/17 11:22:17;;;;;;;22.30;10.40;;;;;;;1.21;100.00;97295.44;12202485;19;20023;-82
2024/01/17 11:26:34;;;;;;;20.20;9.55;;;;;;;1.17;100.00;97283.47;12196843;19;20018;-81
2024/01/17 11:31:05;;;;;;;26.10;11.25;;;;;;;1.09;100.00;97282.00;12186699;19;20556;-80
2024/01/17 11:35:07;;;;;;;20.08;9.73;;;;;;;1.07;100.00;97291.44;12206962;19;20024;-81
2024/01/17 11:39:13;;;;;;;27.27;10.75;;;;;;;0.98;100.00;97277.53;12197374;19;20042;-80
2024/01/17 11:43:16;;;;;;;20.98;10.20;;;;;;;0.89;100.00;97265.44;12209294;19;20011;-80
2024/01/17 11:47:21;;;;;;;22.53;10.60;;;;;;;0.91;100.00;97253.28;12203595;19;20458;-80
2024/01/17 11:51:25;;;;;;;26.90;11.30;;;;;;;1.08;100.00;97238.88;12185789;19;20019;-79
2024/01/17 11:55:31;;;;;;;26.88;10.70;;;;;;;1.11;100.00;97227.50;12201112;19;20019;-80
2024/01/17 11:59:34;;;;;;;21.27;11.05;;;;;;;1.15;100.00;97212.38;12200418;19;20035;-80
2024/01/17 12:03:37;;;;;;;23.52;10.85;;;;;;;1.18;100.00;97198.28;12180279;19;20045;-80
2024/01/17 12:07:39;;;;;;;22.83;10.40;;;;;;;1.29;100.00;97170.22;12201614;19;20010;-80
2024/01/17 12:11:42;;;;;;;24.08;10.82;;;;;;;1.29;100.00;97162.06;12208221;19;20300;-81
2024/01/17 12:15:45;;;;;;;43.67;16.07;;;;;;;1.30;100.00;97136.56;12185727;19;20007;-83
2024/01/17 12:19:47;;;;;;;28.70;11.32;;;;;;;1.35;100.00;97127.69;12205419;19;20093;-83
2024/01/17 12:23:49;;;;;;;30.83;12.05;;;;;;;1.30;100.00;97124.91;12208439;19;20053;-84
2024/01/17 12:27:55;;;;;;;22.00;11.30;;;;;;;1.34;100.00;97115.19;12181643;19;20018;-82
2024/01/17 12:31:57;;;;;;;28.15;12.90;;;;;;;1.31;100.00;97102.97;12215794;19;20027;-83
2024/01/17 12:36:03;;;;;;;33.27;14.67;;;;;;;1.31;100.00;97083.97;12201128;19;20017;-79
2024/01/17 12:40:06;;;;;;;26.20;13.63;;;;;;;1.51;100.00;97047.22;12165044;19;20474;-77
2024/01/17 12:44:08;;;;;;;25.48;11.73;;;;;;;1.72;100.00;97037.34;12183781;19;20011;-77
2024/01/17 12:48:11;;;;;;;26.23;12.40;;;;;;;1.73;100.00;97020.00;12165762;19;20011;-78
2024/01/17 12:52:16;;;;;;;24.35;12.13;;;;;;;1.78;100.00;96987.41;12189863;19;20503;-79
2024/01/17 12:56:18;;;;;;;29.83;13.18;;;;;;;1.81;100.00;96989.59;12215287;19;20045;-78
2024/01/17 13:00:27;;;;;;;27.60;13.75;;;;;;;1.81;100.00;96995.03;12171164;19;20123;-78
2024/01/17 13:04:29;;;;;;;23.67;12.32;;;;;;;1.69;100.00;97008.00;12186402;19;20019;-79
2024/01/17 13:08:31;;;;;;;27.67;13.87;;;;;;;1.71;100.00;97025.66;12192686;19;20025;-79
2024/01/17 13:12:33;;;;;;;22.10;10.57;;;;;;;1.65;100.00;97017.75;12184446;19;21409;-81
2024/01/17 13:16:35;;;;;;;15.87;8.30;;;;;;;1.52;100.00;97002.75;12202040;19;20010;-79
2024/01/17 13:20:40;;;;;;;26.38;11.55;;;;;;;1.52;100.00;96986.47;12212905;19;19999;-81
2024/01/17 13:24:42;;;;;;;25.45;10.93;;;;;;;1.51;100.00;96976.66;12181573;19;20013;-81
2024/01/17 13:28:44;;;;;;;28.17;12.63;;;;;;;1.50;100.00;96977.75;12211216;19;20003;-81
2024/01/17 13:32:46;;;;;;;26.60;11.70;;;;;;;1.51;100.00;96947.63;12211403;19;20006;-82
2024/01/17 13:36:49;;;;;;;23.93;11.40;;;;;;;1.59;100.00;96954.47;12189986;19;20533;-81
2024/01/17 13:40:54;;;;;;;22.20;10.50;;;;;;;1.66;100.00;96940.66;12205702;19;20034;-81
2024/01/17 13:44:59;;;;;;;24.45;11.65;;;;;;;1.70;100.00;96910.03;12203533;19;20007;-81
2024/01/17 13:49:01;;;;;;;25.30;12.77;;;;;;;1.74;100.00;96921.97;12182493;19;20003;-80
2024/01/17 13:53:17;;;;;;;28.48;12.77;;;;;;;1.72;100.00;96910.56;12203491;19;20679;-81
2024/01/17 13:57:20;;;;;;;23.92;11.82;;;;;;;1.59;100.00;96890.16;12176501;19;20011;-79
2024/01/17 14:01:22;;;;;;;23.45;11.95;;;;;;;1.63;100.00;96885.00;12201498;19;20109;-79
2024/01/17 14:05:29;;;;;;;25.20;11.73;;;;;;;1.51;100.00;96892.53;12202264;19;20015;-79
2024/01/17 14:09:32;;;;;;;28.65;13.10;;;;;;;1.48;100.00;96855.88;12178978;19;20035;-81
2024/01/17 14:13:38;;;;;;;18.15;9.32;;;;;;;1.52;100.00;96905.88;12208776;19;20038;-80
2024/01/17 14:17:39;;;;;;;25.70;10.00;;;;;;;1.39;100.00;96921.78;12207425;19;20014;-80
2024/01/17 14:21:42;;;;;;;21.77;9.97;;;;;;;1.31;100.00;96883.22;12214725;19;20055;-80
2024/01/17 14:25:44;;;;;;;;;;;;;;;1.28;100.00;96862.03;12259896;19;20075;-81
2024/01/17 14:29:48;;;;;;;17.40;9.32;;;;;;;1.32;100.00;96865.03;12220074;19;19917;-81
2024/01/17 14:33:50;;;;;;;21.77;10.57;;;;;;;1.36;100.00;96858.00;12185092;19;20006;-82
2024/01/17 14:37:52;;;;;;;14.50;7.43;;;;;;;1.38;100.00;96880.25;12200886;19;20031;-81
2024/01/17 14:41:55;;;;;;;22.20;12.10;;;;;;;1.29;100.00;96828.41;12201316;19;20073;-81
2024/01/17 14:45:56;;;;;;;;;;;;;;;1.31;100.00;96831.69;12181729;19;19998;-81
2024/01/17 14:49:58;;;;;;;21.77;10.68;;;;;;;1.34;100.00;96806.72;12205034;19;19971;-81
2024/01/17 14:54:00;;;;;;;28.07;12.47;;;;;;;1.41;100.00;96806.47;12201642;19;20007;-82
2024/01/17 14:58:03;;;;;;;28.43;12.37;;;;;;;1.49;100.00;96805.97;12174990;19;20014;-81
2024/01/17 15:02:05;;;;;;;27.40;12.77;;;;;;;1.46;100.00;96801.09;12200824;19;20386;-81
2024/01/17 15:06:07;;;;;;;29.57;13.77;;;;;;;1.44;100.00;96780.72;12178721;19;20007;-80
2024/01/17 15:10:13;;;;;;;36.90;18.55;;;;;;;1.50;100.00;96761.47;12198927;19;20015;-81
2024/01/17 15:14:14;;;;;;;28.88;12.88;;;;;;;1.57;100.00;96767.44;12202251;19;20515;-80
2024/01/17 15:18:16;;;;;;;26.52;12.85;;;;;;;1.58;100.00;96768.28;12181167;19;20075;-81
2024/01/17 15:22:18;;;;;;;25.83;13.07;;;;;;;1.57;100.00;96750.34;12193924;19;20561;-81
2024/01/17 15:26:20;;;;;;;27.80;12.80;;;;;;;1.51;100.00;96722.38;12197743;19;20538;-82
2024/01/17 15:30:22;;;;;;;31.90;12.90;;;;;;;1.55;100.00;96725.41;12173756;19;20013;-81
2024/01/17 15:34:24;;;;;;;27.77;12.87;;;;;;;1.66;100.00;96715.38;12183221;19;20328;-80
2024/01/17 15:38:26;;;;;;;27.70;12.70;;;;;;;1.73;100.00;96722.19;12187079;19;20025;-80
2024/01/17 15:42:28;;;;;;;30.65;15.15;;;;;;;1.64;100.00;96729.22;12173050;19;20018;-79
2024/01/17 15:46:31;;;;;;;29.80;13.85;;;;;;;1.60;100.00;96723.50;12184143;19;20019;-78
2024/01/17 15:50:32;;;;;;;26.40;12.25;;;;;;;1.56;100.00;96725.13;12189541;19;20082;-78
2024/01/17 15:54:39;;;;;;;32.97;13.40;;;;;;;1.55;100.00;96723.50;12171734;19;20037;-78
2024/01/17 15:58:42;;;;;;;38.95;16.33;;;;;;;1.57;100.00;96713.19;12195296;19;20470;-77
2024/01/17 16:02:43;;;;;;;29.75;14.23;;;;;;;1.57;100.00;96706.94;12192424;19;20505;-78
2024/01/17 16:06:45;;;;;;;36.63;17.20;;;;;;;1.59;100.00;96707.50;12170353;19;20007;-78
2024/01/17 16:10:48;;;;;;;33.40;16.10;;;;;;;1.59;100.00;96704.78;12191575;19;20474;-77
2024/01/17 16:14:55;;;;;;;29.33;15.10;;;;;;;1.61;100.00;96721.63;12198282;19;20011;-78
2024/01/17 16:18:57;;;;;;;46.25;18.90;;;;;;;1.66;100.00;96701.81;12166782;19;20006;-78
2024/01/17 16:23:02;;;;;;;32.83;14.90;;;;;;;1.68;100.00;96697.75;12187704;19;20097;-78
2024/01/17 16:27:04;;;;;;;35.72;17.77;;;;;;;1.72;100.00;96679.00;12179030;19;20015;-79
2024/01/17 16:31:08;;;;;;;28.55;14.55;;;;;;;1.75;100.00;96687.41;12193121;19;20022;-79
2024/01/17 16:35:11;;;;;;;25.75;13.63;;;;;;;1.72;100.00;96677.09;12191789;19;20007;-79
2024/01/17 16:39:17;;;;;;;40.33;17.33;;;;;;;1.74;100.00;96657.84;12180201;19;20014;-80
2024/01/17 16:43:20;;;;;;;31.17;15.48;;;;;;;1.70;100.00;96670.34;12200920;19;20027;-80
2024/01/17 16:47:24;;;;;;;29.03;15.13;;;;;;;1.69;100.00;96679.56;12211051;19;20767;-82
2024/01/17 16:51:26;;;;;;;29.33;15.30;;;;;;;1.70;100.00;96690.16;12187766;19;20096;-81
2024/01/17 16:55:30;;;;;;;39.30;19.10;;;;;;;1.69;100.00;96647.78;12207669;19;20075;-82
2024/01/17 16:59:32;;;;;;;36.05;17.65;;;;;;;1.72;100.00;96684.44;12217597;19;20006;-80
2024/01/17 17:03:34;;;;;;;53.27;23.87;;;;;;;1.67;100.00;96682.56;12191599;19;20091;-80
2024/01/17 17:07:38;;;;;;;33.07;15.73;;;;;;;1.63;100.00;96656.19;12206405;19;20103;-81
2024/01/17 17:11:40;;;;;;;30.92;15.35;;;;;;;1.66;100.00;96666.53;12207003;19;20255;-80
2024/01/17 17:15:41;;;;;;;36.00;18.03;;;;;;;1.61;100.00;96675.47;12179425;19;20017;-79
2024/01/17 17:19:43;;;;;;;31.70;13.87;;;;;;;1.65;100.00;96717.28;12202427;19;20006;-80
2024/01/17 17:23:49;;;;;;;30.27;16.27;;;;;;;1.65;100.00;96692.03;12201636;19;20323;-79
2024/01/17 17:27:51;;;;;;;37.80;18.75;;;;;;;1.66;100.00;96682.81;12179148;19;20837;-80
2024/01/17 17:31:55;;;;;;;39.72;17.83;;;;;;;1.67;100.00;96681.75;12204047;19;20478;-79
2024/01/17 17:35:58;;;;;;;35.53;17.05;;;;;;;1.64;100.00;96698.56;12204971;19;20470;-80
2024/01/17 17:40:04;;;;;;;33.25;16.95;;;;;;;1.71;100.00;96691.78;12189475;19;20032;-80
2024/01/17 17:44:06;;;;;;;46.58;17.48;;;;;;;1.79;100.00;96691.25;12217894;19;20006;-81
2024/01/17 17:48:09;;;;;;;33.77;16.53;;;;;;;1.88;100.00;96702.38;12199087;19;20019;-79
2024/01/17 17:52:11;;;;;;;38.00;17.10;;;;;;;1.91;100.00;96701.84;12218345;19;20070;-79
2024/01/17 17:56:13;;;;;;;31.13;15.48;;;;;;;1.90;100.00;96705.63;12215508;19;20006;-80
2024/01/17 18:00:15;;;;;;;45.45;20.85;;;;;;;1.79;100.00;96710.25;12188014;19;20015;-80
2024/01/17 18:04:24;;;;;;;43.70;19.33;;;;;;;1.77;100.00;96692.59;12202539;19;20006;-80
2024/01/17 18:08:27;;;;;;;45.63;20.13;;;;;;;1.78;100.00;96702.38;12203187;19;20355;-78
2024/01/17 18:12:29;;;;;;;41.50;18.23;;;;;;;1.73;100.00;96705.91;12178953;19;20018;-79
2024/01/17 18:16:31;;;;;;;35.00;15.73;;;;;;;1.70;100.00;96728.16;12202927;19;20014;-78
2024/01/17 18:20:33;;;;;;;34.38;14.80;;;;;;;1.59;100.00;96721.88;12198881;19;20011;-79
2024/01/17 18:24:35;;;;;;;34.93;15.57;;;;;;;1.58;100.00;96714.81;12174005;19;20019;-78
2024/01/17 18:28:37;;;;;;;34.33;14.95;;;;;;;1.70;100.00;96735.50;12195041;19;20014;-79
2024/01/17 18:32:39;;;;;;;33.00;13.57;;;;;;;1.61;100.00;96721.63;12194652;19;20946;-79